sensor_id;sensor_type;location;lat;lon;timestamp;temperature;humidity
32534;DHT22;18973;48.580;8.912;2023-02-28T00:00:48;-0.90;93.50
32534;DHT22;18973;48.580;8.912;2023-02-28T00:03:14;-1.00;93.50
32534;DHT22;18973;48.580;8.912;2023-02-28T00:05:40;-1.00;93.60
32534;DHT22;18973;48.580;8.912;2023-02-28T00:08:07;-1.00;93.70
32534;DHT22;18973;48.580;8.912;2023-02-28T00:10:33;-0.90;93.70
32534;DHT22;18973;48.580;8.912;2023-02-28T00:13:04;-0.80;93.70
32534;DHT22;18973;48.580;8.912;2023-02-28T00:15:30;-0.90;93.70
32534;DHT22;18973;48.580;8.912;2023-02-28T00:17:56;-0.90;93.70
32534;DHT22;18973;48.580;8.912;2023-02-28T00:20:22;-0.80;93.70
32534;DHT22;18973;48.580;8.912;2023-02-28T00:22:51;-0.80;93.90
32534;DHT22;18973;48.580;8.912;2023-02-28T00:25:20;-1.10;94.30
32534;DHT22;18973;48.580;8.912;2023-02-28T00:27:47;-1.10;94.50
32534;DHT22;18973;48.580;8.912;2023-02-28T00:30:15;-1.20;94.80
32534;DHT22;18973;48.580;8.912;2023-02-28T00:32:41;-1.20;95.30
32534;DHT22;18973;48.580;8.912;2023-02-28T00:35:08;-1.10;95.20
32534;DHT22;18973;48.580;8.912;2023-02-28T00:37:34;-1.10;95.10
32534;DHT22;18973;48.580;8.912;2023-02-28T00:40:00;-0.90;94.90
32534;DHT22;18973;48.580;8.912;2023-02-28T00:42:26;-1.00;95.10
32534;DHT22;18973;48.580;8.912;2023-02-28T00:44:52;-1.10;95.80
32534;DHT22;18973;48.580;8.912;2023-02-28T00:47:17;-1.00;95.20
32534;DHT22;18973;48.580;8.912;2023-02-28T00:49:43;-0.80;95.00
32534;DHT22;18973;48.580;8.912;2023-02-28T00:52:09;-0.80;94.90
32534;DHT22;18973;48.580;8.912;2023-02-28T00:54:35;-0.90;94.60
32534;DHT22;18973;48.580;8.912;2023-02-28T00:57:01;-1.40;95.70
32534;DHT22;18973;48.580;8.912;2023-02-28T00:59:26;-1.30;96.10
32534;DHT22;18973;48.580;8.912;2023-02-28T01:01:52;-1.20;96.10
32534;DHT22;18973;48.580;8.912;2023-02-28T01:04:18;-1.20;96.10
32534;DHT22;18973;48.580;8.912;2023-02-28T01:06:44;-1.30;96.00
32534;DHT22;18973;48.580;8.912;2023-02-28T01:09:10;-1.20;96.40
32534;DHT22;18973;48.580;8.912;2023-02-28T01:11:36;-1.30;96.40
32534;DHT22;18973;48.580;8.912;2023-02-28T01:14:02;-1.30;96.50
32534;DHT22;18973;48.580;8.912;2023-02-28T01:16:29;-1.30;96.80
32534;DHT22;18973;48.580;8.912;2023-02-28T01:18:55;-1.40;96.80
32534;DHT22;18973;48.580;8.912;2023-02-28T01:21:21;-1.50;97.10
32534;DHT22;18973;48.580;8.912;2023-02-28T01:23:47;-1.30;97.10
32534;DHT22;18973;48.580;8.912;2023-02-28T01:26:21;-1.30;97.00
32534;DHT22;18973;48.580;8.912;2023-02-28T01:28:49;-1.20;97.20
32534;DHT22;18973;48.580;8.912;2023-02-28T01:31:17;-1.30;97.10
32534;DHT22;18973;48.580;8.912;2023-02-28T01:33:44;-1.20;97.10
32534;DHT22;18973;48.580;8.912;2023-02-28T01:36:13;-1.30;97.00
32534;DHT22;18973;48.580;8.912;2023-02-28T01:38:39;-1.40;97.10
32534;DHT22;18973;48.580;8.912;2023-02-28T01:41:06;-1.40;97.40
32534;DHT22;18973;48.580;8.912;2023-02-28T01:43:56;-1.50;97.50
32534;DHT22;18973;48.580;8.912;2023-02-28T01:46:24;-1.70;98.20
32534;DHT22;18973;48.580;8.912;2023-02-28T01:49:00;-1.70;98.50
32534;DHT22;18973;48.580;8.912;2023-02-28T01:51:38;-1.80;98.60
32534;DHT22;18973;48.580;8.912;2023-02-28T01:54:08;-1.80;99.00
32534;DHT22;18973;48.580;8.912;2023-02-28T01:56:42;-1.90;99.40
32534;DHT22;18973;48.580;8.912;2023-02-28T01:59:10;-1.80;99.30
32534;DHT22;18973;48.580;8.912;2023-02-28T02:01:37;-1.80;99.60
32534;DHT22;18973;48.580;8.912;2023-02-28T02:04:03;-1.90;99.90
32534;DHT22;18973;48.580;8.912;2023-02-28T02:06:35;-1.90;99.90
32534;DHT22;18973;48.580;8.912;2023-02-28T02:09:02;-1.80;99.90
32534;DHT22;18973;48.580;8.912;2023-02-28T02:11:28;-1.90;99.90
32534;DHT22;18973;48.580;8.912;2023-02-28T02:36:03;-1.80;99.90
32534;DHT22;18973;48.580;8.912;2023-02-28T02:38:51;-1.90;99.90
32534;DHT22;18973;48.580;8.912;2023-02-28T02:46:25;-1.90;99.90
32534;DHT22;18973;48.580;8.912;2023-02-28T02:48:52;-1.90;99.90
32534;DHT22;18973;48.580;8.912;2023-02-28T02:51:22;-2.00;99.90
32534;DHT22;18973;48.580;8.912;2023-02-28T02:53:55;-1.90;99.90
32534;DHT22;18973;48.580;8.912;2023-02-28T02:56:26;-1.80;99.90
32534;DHT22;18973;48.580;8.912;2023-02-28T02:58:54;-1.80;99.90
32534;DHT22;18973;48.580;8.912;2023-02-28T03:01:24;-1.70;99.90
32534;DHT22;18973;48.580;8.912;2023-02-28T03:04:04;-1.70;99.90
32534;DHT22;18973;48.580;8.912;2023-02-28T03:06:31;-1.60;99.90
32534;DHT22;18973;48.580;8.912;2023-02-28T03:08:56;-1.80;99.90
32534;DHT22;18973;48.580;8.912;2023-02-28T03:11:23;-1.70;99.90
32534;DHT22;18973;48.580;8.912;2023-02-28T03:14:12;-1.60;99.90
32534;DHT22;18973;48.580;8.912;2023-02-28T03:27:30;-1.90;99.90
32534;DHT22;18973;48.580;8.912;2023-02-28T03:30:06;-1.90;99.90
32534;DHT22;18973;48.580;8.912;2023-02-28T03:32:42;-1.90;99.90
32534;DHT22;18973;48.580;8.912;2023-02-28T03:35:26;-2.00;99.90
32534;DHT22;18973;48.580;8.912;2023-02-28T03:37:56;-1.80;99.90
32534;DHT22;18973;48.580;8.912;2023-02-28T03:40:29;-1.80;99.90
32534;DHT22;18973;48.580;8.912;2023-02-28T03:43:01;-1.80;99.90
32534;DHT22;18973;48.580;8.912;2023-02-28T03:45:30;-1.80;99.90
32534;DHT22;18973;48.580;8.912;2023-02-28T03:48:08;-1.70;99.90
32534;DHT22;18973;48.580;8.912;2023-02-28T03:50:41;-1.70;99.90
32534;DHT22;18973;48.580;8.912;2023-02-28T03:56:31;-1.40;99.90
32534;DHT22;18973;48.580;8.912;2023-02-28T03:59:06;-1.50;99.90
32534;DHT22;18973;48.580;8.912;2023-02-28T04:04:01;-1.60;99.90
32534;DHT22;18973;48.580;8.912;2023-02-28T04:06:27;-1.50;99.90
32534;DHT22;18973;48.580;8.912;2023-02-28T04:08:56;-1.40;99.90
32534;DHT22;18973;48.580;8.912;2023-02-28T04:11:23;-1.50;99.90
32534;DHT22;18973;48.580;8.912;2023-02-28T04:13:50;-1.50;99.90
32534;DHT22;18973;48.580;8.912;2023-02-28T04:16:16;-1.50;99.90
32534;DHT22;18973;48.580;8.912;2023-02-28T04:18:42;-1.40;99.90
32534;DHT22;18973;48.580;8.912;2023-02-28T04:21:11;-1.60;99.90
32534;DHT22;18973;48.580;8.912;2023-02-28T04:23:37;-1.60;99.90
32534;DHT22;18973;48.580;8.912;2023-02-28T04:26:03;-1.70;99.90
32534;DHT22;18973;48.580;8.912;2023-02-28T04:28:29;-1.50;99.90
32534;DHT22;18973;48.580;8.912;2023-02-28T04:30:57;-1.60;99.90
32534;DHT22;18973;48.580;8.912;2023-02-28T04:33:23;-1.70;99.90
32534;DHT22;18973;48.580;8.912;2023-02-28T04:35:57;-1.70;99.90
32534;DHT22;18973;48.580;8.912;2023-02-28T04:38:22;-1.70;99.90
32534;DHT22;18973;48.580;8.912;2023-02-28T04:40:48;-1.60;99.90
32534;DHT22;18973;48.580;8.912;2023-02-28T04:43:14;-1.50;99.90
32534;DHT22;18973;48.580;8.912;2023-02-28T04:45:40;-1.70;99.90
32534;DHT22;18973;48.580;8.912;2023-02-28T04:48:05;-1.80;99.90
32534;DHT22;18973;48.580;8.912;2023-02-28T04:50:31;-1.70;99.90
32534;DHT22;18973;48.580;8.912;2023-02-28T04:52:57;-1.60;99.90
32534;DHT22;18973;48.580;8.912;2023-02-28T04:55:22;-1.60;99.90
32534;DHT22;18973;48.580;8.912;2023-02-28T04:57:48;-1.50;99.90
32534;DHT22;18973;48.580;8.912;2023-02-28T05:00:14;-1.40;99.90
32534;DHT22;18973;48.580;8.912;2023-02-28T05:02:42;-1.50;99.90
32534;DHT22;18973;48.580;8.912;2023-02-28T05:05:08;-1.50;99.90
32534;DHT22;18973;48.580;8.912;2023-02-28T05:07:34;-1.50;99.90
32534;DHT22;18973;48.580;8.912;2023-02-28T05:09:59;-1.30;99.90
32534;DHT22;18973;48.580;8.912;2023-02-28T05:12:25;-1.40;99.90
32534;DHT22;18973;48.580;8.912;2023-02-28T05:14:51;-1.30;99.90
32534;DHT22;18973;48.580;8.912;2023-02-28T05:17:16;-1.40;99.90
32534;DHT22;18973;48.580;8.912;2023-02-28T05:19:42;-1.60;99.90
32534;DHT22;18973;48.580;8.912;2023-02-28T05:22:14;-1.50;99.90
32534;DHT22;18973;48.580;8.912;2023-02-28T05:24:42;-1.40;99.90
32534;DHT22;18973;48.580;8.912;2023-02-28T05:27:07;-1.50;99.90
32534;DHT22;18973;48.580;8.912;2023-02-28T05:29:33;-1.50;99.90
32534;DHT22;18973;48.580;8.912;2023-02-28T05:31:59;-1.60;99.90
32534;DHT22;18973;48.580;8.912;2023-02-28T05:34:25;-1.60;99.90
32534;DHT22;18973;48.580;8.912;2023-02-28T05:36:50;-1.60;99.90
32534;DHT22;18973;48.580;8.912;2023-02-28T05:39:16;-1.60;99.90
32534;DHT22;18973;48.580;8.912;2023-02-28T05:41:42;-1.60;99.90
32534;DHT22;18973;48.580;8.912;2023-02-28T05:44:09;-1.60;99.90
32534;DHT22;18973;48.580;8.912;2023-02-28T05:46:35;-1.70;99.90
32534;DHT22;18973;48.580;8.912;2023-02-28T05:49:00;-1.60;99.90
32534;DHT22;18973;48.580;8.912;2023-02-28T05:51:26;-1.60;99.90
32534;DHT22;18973;48.580;8.912;2023-02-28T05:53:52;-1.60;99.90
32534;DHT22;18973;48.580;8.912;2023-02-28T05:56:18;-1.60;99.90
32534;DHT22;18973;48.580;8.912;2023-02-28T05:58:43;-1.70;99.90
32534;DHT22;18973;48.580;8.912;2023-02-28T06:01:24;-1.70;99.90
32534;DHT22;18973;48.580;8.912;2023-02-28T06:03:52;-1.80;99.90
32534;DHT22;18973;48.580;8.912;2023-02-28T06:06:17;-1.80;99.90
32534;DHT22;18973;48.580;8.912;2023-02-28T06:08:43;-1.70;99.90
32534;DHT22;18973;48.580;8.912;2023-02-28T06:11:10;-1.70;99.90
32534;DHT22;18973;48.580;8.912;2023-02-28T06:13:35;-1.70;99.90
32534;DHT22;18973;48.580;8.912;2023-02-28T06:16:01;-1.70;99.90
32534;DHT22;18973;48.580;8.912;2023-02-28T06:18:27;-1.70;99.90
32534;DHT22;18973;48.580;8.912;2023-02-28T06:20:54;-1.70;99.90
32534;DHT22;18973;48.580;8.912;2023-02-28T06:23:20;-1.80;99.90
32534;DHT22;18973;48.580;8.912;2023-02-28T06:25:46;-1.80;99.90
32534;DHT22;18973;48.580;8.912;2023-02-28T06:28:12;-1.80;99.90
32534;DHT22;18973;48.580;8.912;2023-02-28T06:30:38;-1.80;99.90
32534;DHT22;18973;48.580;8.912;2023-02-28T06:33:04;-1.80;99.90
32534;DHT22;18973;48.580;8.912;2023-02-28T06:35:30;-1.90;99.90
32534;DHT22;18973;48.580;8.912;2023-02-28T06:37:56;-1.70;99.90
32534;DHT22;18973;48.580;8.912;2023-02-28T06:40:22;-1.70;99.90
32534;DHT22;18973;48.580;8.912;2023-02-28T06:42:47;-1.60;99.90
32534;DHT22;18973;48.580;8.912;2023-02-28T06:45:13;-1.50;99.90
32534;DHT22;18973;48.580;8.912;2023-02-28T06:47:40;-1.70;99.90
32534;DHT22;18973;48.580;8.912;2023-02-28T06:50:08;-1.60;99.90
32534;DHT22;18973;48.580;8.912;2023-02-28T06:52:36;-1.60;99.90
32534;DHT22;18973;48.580;8.912;2023-02-28T06:55:04;-1.50;99.90
32534;DHT22;18973;48.580;8.912;2023-02-28T06:57:31;-1.50;99.90
32534;DHT22;18973;48.580;8.912;2023-02-28T06:59:59;-1.50;99.90
32534;DHT22;18973;48.580;8.912;2023-02-28T07:02:25;-1.50;99.90
32534;DHT22;18973;48.580;8.912;2023-02-28T07:04:51;-1.40;99.90
32534;DHT22;18973;48.580;8.912;2023-02-28T07:07:17;-1.20;99.90
32534;DHT22;18973;48.580;8.912;2023-02-28T07:09:42;-1.10;99.90
32534;DHT22;18973;48.580;8.912;2023-02-28T07:12:08;-1.10;99.90
32534;DHT22;18973;48.580;8.912;2023-02-28T07:14:33;-1.10;99.90
32534;DHT22;18973;48.580;8.912;2023-02-28T07:17:01;-1.00;99.90
32534;DHT22;18973;48.580;8.912;2023-02-28T07:19:27;-1.10;99.90
32534;DHT22;18973;48.580;8.912;2023-02-28T07:21:53;-1.30;99.90
32534;DHT22;18973;48.580;8.912;2023-02-28T07:24:19;-1.30;99.90
32534;DHT22;18973;48.580;8.912;2023-02-28T07:26:44;-1.10;99.90
32534;DHT22;18973;48.580;8.912;2023-02-28T07:29:10;-1.20;99.90
32534;DHT22;18973;48.580;8.912;2023-02-28T07:31:36;-1.10;99.90
32534;DHT22;18973;48.580;8.912;2023-02-28T07:34:02;-0.90;99.90
32534;DHT22;18973;48.580;8.912;2023-02-28T07:36:28;-0.90;99.90
32534;DHT22;18973;48.580;8.912;2023-02-28T07:38:54;-1.00;99.90
32534;DHT22;18973;48.580;8.912;2023-02-28T07:41:21;-0.80;99.90
32534;DHT22;18973;48.580;8.912;2023-02-28T07:43:47;-0.80;99.90
32534;DHT22;18973;48.580;8.912;2023-02-28T07:46:16;-0.90;99.90
32534;DHT22;18973;48.580;8.912;2023-02-28T07:48:42;-0.90;99.90
32534;DHT22;18973;48.580;8.912;2023-02-28T07:51:08;-1.00;99.90
32534;DHT22;18973;48.580;8.912;2023-02-28T07:53:34;-0.90;99.90
32534;DHT22;18973;48.580;8.912;2023-02-28T07:56:01;-0.80;99.90
32534;DHT22;18973;48.580;8.912;2023-02-28T07:58:28;-0.70;99.90
32534;DHT22;18973;48.580;8.912;2023-02-28T08:00:54;-0.60;99.90
32534;DHT22;18973;48.580;8.912;2023-02-28T08:03:22;-0.70;99.90
32534;DHT22;18973;48.580;8.912;2023-02-28T08:05:48;-0.60;99.90
32534;DHT22;18973;48.580;8.912;2023-02-28T08:08:15;-0.70;99.90
32534;DHT22;18973;48.580;8.912;2023-02-28T08:10:41;-0.70;99.90
32534;DHT22;18973;48.580;8.912;2023-02-28T08:13:07;-0.80;99.90
32534;DHT22;18973;48.580;8.912;2023-02-28T08:15:33;-0.70;99.90
32534;DHT22;18973;48.580;8.912;2023-02-28T08:17:59;-0.70;99.90
32534;DHT22;18973;48.580;8.912;2023-02-28T08:20:25;-0.60;99.90
32534;DHT22;18973;48.580;8.912;2023-02-28T08:22:51;-0.50;99.90
32534;DHT22;18973;48.580;8.912;2023-02-28T08:25:16;-0.40;99.90
32534;DHT22;18973;48.580;8.912;2023-02-28T08:27:42;-0.30;99.90
32534;DHT22;18973;48.580;8.912;2023-02-28T08:30:11;-0.30;99.90
32534;DHT22;18973;48.580;8.912;2023-02-28T08:32:37;-0.30;99.90
32534;DHT22;18973;48.580;8.912;2023-02-28T08:35:04;-0.40;99.90
32534;DHT22;18973;48.580;8.912;2023-02-28T08:37:30;-0.40;99.90
32534;DHT22;18973;48.580;8.912;2023-02-28T08:39:56;-0.30;99.90
32534;DHT22;18973;48.580;8.912;2023-02-28T08:42:22;-0.40;99.90
32534;DHT22;18973;48.580;8.912;2023-02-28T08:44:47;-0.20;99.90
32534;DHT22;18973;48.580;8.912;2023-02-28T08:47:13;-0.40;99.90
32534;DHT22;18973;48.580;8.912;2023-02-28T08:49:39;-0.50;99.90
32534;DHT22;18973;48.580;8.912;2023-02-28T08:52:04;-0.50;99.90
32534;DHT22;18973;48.580;8.912;2023-02-28T08:54:31;-0.40;99.90
32534;DHT22;18973;48.580;8.912;2023-02-28T08:56:58;-0.40;99.90
32534;DHT22;18973;48.580;8.912;2023-02-28T08:59:24;-0.40;99.90
32534;DHT22;18973;48.580;8.912;2023-02-28T09:01:50;-0.30;99.90
32534;DHT22;18973;48.580;8.912;2023-02-28T09:04:15;-0.50;99.90
32534;DHT22;18973;48.580;8.912;2023-02-28T09:06:41;-0.40;99.90
32534;DHT22;18973;48.580;8.912;2023-02-28T09:09:07;-0.20;99.90
32534;DHT22;18973;48.580;8.912;2023-02-28T09:11:34;-0.20;99.90
32534;DHT22;18973;48.580;8.912;2023-02-28T09:14:00;-0.10;99.90
32534;DHT22;18973;48.580;8.912;2023-02-28T09:16:29;0.10;99.90
32534;DHT22;18973;48.580;8.912;2023-02-28T09:18:56;0.20;99.90
32534;DHT22;18973;48.580;8.912;2023-02-28T09:21:21;0.00;99.90
32534;DHT22;18973;48.580;8.912;2023-02-28T09:23:49;0.00;99.90
32534;DHT22;18973;48.580;8.912;2023-02-28T09:26:16;0.00;99.90
32534;DHT22;18973;48.580;8.912;2023-02-28T09:28:42;0.20;99.90
32534;DHT22;18973;48.580;8.912;2023-02-28T09:31:16;0.20;99.90
32534;DHT22;18973;48.580;8.912;2023-02-28T09:33:42;0.30;99.90
32534;DHT22;18973;48.580;8.912;2023-02-28T09:36:08;0.50;99.90
32534;DHT22;18973;48.580;8.912;2023-02-28T09:38:34;0.30;99.90
32534;DHT22;18973;48.580;8.912;2023-02-28T09:41:08;0.20;99.90
32534;DHT22;18973;48.580;8.912;2023-02-28T09:43:38;0.40;99.90
32534;DHT22;18973;48.580;8.912;2023-02-28T09:48:46;0.40;99.90
32534;DHT22;18973;48.580;8.912;2023-02-28T09:54:01;0.40;99.90
32534;DHT22;18973;48.580;8.912;2023-02-28T09:56:36;0.30;99.90
32534;DHT22;18973;48.580;8.912;2023-02-28T10:05:13;0.30;99.90
32534;DHT22;18973;48.580;8.912;2023-02-28T10:12:52;0.60;99.90
32534;DHT22;18973;48.580;8.912;2023-02-28T10:15:22;0.70;99.90
32534;DHT22;18973;48.580;8.912;2023-02-28T10:17:53;0.70;99.90
32534;DHT22;18973;48.580;8.912;2023-02-28T10:20:21;0.60;99.90
32534;DHT22;18973;48.580;8.912;2023-02-28T10:23:21;0.30;99.90
32534;DHT22;18973;48.580;8.912;2023-02-28T10:25:55;0.40;99.90
32534;DHT22;18973;48.580;8.912;2023-02-28T10:28:24;0.50;99.90
32534;DHT22;18973;48.580;8.912;2023-02-28T10:30:52;0.60;99.90
32534;DHT22;18973;48.580;8.912;2023-02-28T10:33:22;0.70;99.90
32534;DHT22;18973;48.580;8.912;2023-02-28T10:35:49;0.80;99.90
32534;DHT22;18973;48.580;8.912;2023-02-28T10:38:22;0.80;99.90
32534;DHT22;18973;48.580;8.912;2023-02-28T10:40:48;0.80;99.90
32534;DHT22;18973;48.580;8.912;2023-02-28T10:50:51;1.00;99.90
32534;DHT22;18973;48.580;8.912;2023-02-28T10:58:57;0.80;99.90
32534;DHT22;18973;48.580;8.912;2023-02-28T11:03:49;1.00;99.90
32534;DHT22;18973;48.580;8.912;2023-02-28T11:06:22;1.00;99.90
32534;DHT22;18973;48.580;8.912;2023-02-28T11:08:54;1.00;99.90
32534;DHT22;18973;48.580;8.912;2023-02-28T11:11:21;0.90;99.90
32534;DHT22;18973;48.580;8.912;2023-02-28T11:13:51;1.10;99.90
32534;DHT22;18973;48.580;8.912;2023-02-28T11:16:18;1.20;99.90
32534;DHT22;18973;48.580;8.912;2023-02-28T11:18:53;1.40;99.90
32534;DHT22;18973;48.580;8.912;2023-02-28T11:21:31;1.50;99.90
32534;DHT22;18973;48.580;8.912;2023-02-28T11:26:48;1.70;99.60
32534;DHT22;18973;48.580;8.912;2023-02-28T11:34:29;1.80;99.00
32534;DHT22;18973;48.580;8.912;2023-02-28T11:36:56;1.90;98.60
32534;DHT22;18973;48.580;8.912;2023-02-28T11:39:23;1.90;98.40
32534;DHT22;18973;48.580;8.912;2023-02-28T11:50:49;1.80;98.20
32534;DHT22;18973;48.580;8.912;2023-02-28T11:59:02;1.90;98.00
32534;DHT22;18973;48.580;8.912;2023-02-28T12:01:38;2.10;97.70
32534;DHT22;18973;48.580;8.912;2023-02-28T12:10:24;2.40;96.70
32534;DHT22;18973;48.580;8.912;2023-02-28T12:13:09;2.50;96.50
32534;DHT22;18973;48.580;8.912;2023-02-28T12:16:00;2.60;96.20
32534;DHT22;18973;48.580;8.912;2023-02-28T12:18:51;2.60;96.00
32534;DHT22;18973;48.580;8.912;2023-02-28T12:21:33;2.50;95.80
32534;DHT22;18973;48.580;8.912;2023-02-28T12:26:46;2.30;97.10
32534;DHT22;18973;48.580;8.912;2023-02-28T12:29:29;2.70;97.40
32534;DHT22;18973;48.580;8.912;2023-02-28T12:32:06;2.90;95.50
32534;DHT22;18973;48.580;8.912;2023-02-28T12:34:43;2.90;94.90
32534;DHT22;18973;48.580;8.912;2023-02-28T12:37:19;2.70;95.00
32534;DHT22;18973;48.580;8.912;2023-02-28T12:39:51;2.90;95.30
32534;DHT22;18973;48.580;8.912;2023-02-28T12:42:27;3.20;95.00
32534;DHT22;18973;48.580;8.912;2023-02-28T12:45:00;3.50;93.80
32534;DHT22;18973;48.580;8.912;2023-02-28T12:47:27;3.70;93.50
32534;DHT22;18973;48.580;8.912;2023-02-28T12:49:58;3.70;93.80
32534;DHT22;18973;48.580;8.912;2023-02-28T12:55:15;4.30;93.00
32534;DHT22;18973;48.580;8.912;2023-02-28T12:57:50;4.80;91.50
32534;DHT22;18973;48.580;8.912;2023-02-28T13:00:22;4.90;90.60
32534;DHT22;18973;48.580;8.912;2023-02-28T13:08:08;4.70;89.30
32534;DHT22;18973;48.580;8.912;2023-02-28T13:10:47;4.60;90.00
32534;DHT22;18973;48.580;8.912;2023-02-28T13:13:22;4.50;90.70
32534;DHT22;18973;48.580;8.912;2023-02-28T13:16:08;4.50;87.60
32534;DHT22;18973;48.580;8.912;2023-02-28T13:21:07;4.40;88.90
32534;DHT22;18973;48.580;8.912;2023-02-28T13:26:17;4.40;87.80
32534;DHT22;18973;48.580;8.912;2023-02-28T13:34:47;4.40;87.20
32534;DHT22;18973;48.580;8.912;2023-02-28T13:39:55;4.50;89.30
32534;DHT22;18973;48.580;8.912;2023-02-28T13:47:41;4.90;88.80
32534;DHT22;18973;48.580;8.912;2023-02-28T14:06:55;5.00;87.20
32534;DHT22;18973;48.580;8.912;2023-02-28T14:09:31;4.60;85.20
32534;DHT22;18973;48.580;8.912;2023-02-28T14:15:03;4.50;87.30
32534;DHT22;18973;48.580;8.912;2023-02-28T14:17:31;4.40;87.60
32534;DHT22;18973;48.580;8.912;2023-02-28T14:19:57;4.50;88.00
32534;DHT22;18973;48.580;8.912;2023-02-28T14:25:27;5.00;85.50
32534;DHT22;18973;48.580;8.912;2023-02-28T14:38:56;4.90;85.60
32534;DHT22;18973;48.580;8.912;2023-02-28T14:41:33;4.80;85.60
32534;DHT22;18973;48.580;8.912;2023-02-28T14:44:13;4.90;84.80
32534;DHT22;18973;48.580;8.912;2023-02-28T14:46:41;4.80;85.50
32534;DHT22;18973;48.580;8.912;2023-02-28T14:49:15;5.00;86.00
32534;DHT22;18973;48.580;8.912;2023-02-28T14:51:42;5.10;85.50
32534;DHT22;18973;48.580;8.912;2023-02-28T14:54:14;5.10;84.30
32534;DHT22;18973;48.580;8.912;2023-02-28T14:56:41;5.00;85.20
32534;DHT22;18973;48.580;8.912;2023-02-28T14:59:24;4.90;85.10
32534;DHT22;18973;48.580;8.912;2023-02-28T15:01:50;5.00;85.80
32534;DHT22;18973;48.580;8.912;2023-02-28T15:04:25;5.10;85.60
32534;DHT22;18973;48.580;8.912;2023-02-28T15:07:13;5.30;83.80
32534;DHT22;18973;48.580;8.912;2023-02-28T15:09:40;5.00;83.50
32534;DHT22;18973;48.580;8.912;2023-02-28T15:12:06;4.90;84.80
32534;DHT22;18973;48.580;8.912;2023-02-28T15:14:32;4.90;84.30
32534;DHT22;18973;48.580;8.912;2023-02-28T15:17:06;4.90;84.80
32534;DHT22;18973;48.580;8.912;2023-02-28T15:19:36;5.00;84.30
32534;DHT22;18973;48.580;8.912;2023-02-28T15:22:12;5.20;85.00
32534;DHT22;18973;48.580;8.912;2023-02-28T15:24:46;5.30;83.40
32534;DHT22;18973;48.580;8.912;2023-02-28T15:27:30;5.40;82.70
32534;DHT22;18973;48.580;8.912;2023-02-28T15:30:06;5.40;83.10
32534;DHT22;18973;48.580;8.912;2023-02-28T15:32:37;5.10;82.80
32534;DHT22;18973;48.580;8.912;2023-02-28T15:35:26;5.00;83.20
32534;DHT22;18973;48.580;8.912;2023-02-28T15:38:01;5.00;84.10
32534;DHT22;18973;48.580;8.912;2023-02-28T15:40:41;5.10;83.90
32534;DHT22;18973;48.580;8.912;2023-02-28T15:43:14;5.00;83.30
32534;DHT22;18973;48.580;8.912;2023-02-28T15:45:45;5.00;84.20
32534;DHT22;18973;48.580;8.912;2023-02-28T15:48:23;5.20;83.30
32534;DHT22;18973;48.580;8.912;2023-02-28T15:51:01;5.30;82.00
32534;DHT22;18973;48.580;8.912;2023-02-28T15:53:35;5.20;82.40
32534;DHT22;18973;48.580;8.912;2023-02-28T15:56:04;5.00;82.90
32534;DHT22;18973;48.580;8.912;2023-02-28T15:58:32;5.10;83.30
32534;DHT22;18973;48.580;8.912;2023-02-28T16:01:06;5.00;82.80
32534;DHT22;18973;48.580;8.912;2023-02-28T16:03:48;5.00;83.80
32534;DHT22;18973;48.580;8.912;2023-02-28T16:09:04;4.80;83.40
32534;DHT22;18973;48.580;8.912;2023-02-28T16:11:33;4.70;84.10
32534;DHT22;18973;48.580;8.912;2023-02-28T16:13:59;4.80;84.30
32534;DHT22;18973;48.580;8.912;2023-02-28T16:16:26;4.70;84.00
32534;DHT22;18973;48.580;8.912;2023-02-28T16:18:52;4.60;84.30
32534;DHT22;18973;48.580;8.912;2023-02-28T16:21:18;4.60;84.50
32534;DHT22;18973;48.580;8.912;2023-02-28T16:23:44;4.70;84.70
32534;DHT22;18973;48.580;8.912;2023-02-28T16:26:21;4.80;84.50
32534;DHT22;18973;48.580;8.912;2023-02-28T16:28:48;4.80;84.00
32534;DHT22;18973;48.580;8.912;2023-02-28T16:31:15;4.90;84.10
32534;DHT22;18973;48.580;8.912;2023-02-28T16:33:43;4.80;83.80
32534;DHT22;18973;48.580;8.912;2023-02-28T16:36:20;4.70;84.80
32534;DHT22;18973;48.580;8.912;2023-02-28T16:38:47;4.60;85.00
32534;DHT22;18973;48.580;8.912;2023-02-28T16:41:17;4.60;85.00
32534;DHT22;18973;48.580;8.912;2023-02-28T16:43:49;4.60;84.80
32534;DHT22;18973;48.580;8.912;2023-02-28T16:46:16;4.70;84.90
32534;DHT22;18973;48.580;8.912;2023-02-28T16:48:43;4.70;84.60
32534;DHT22;18973;48.580;8.912;2023-02-28T16:51:13;4.60;84.30
32534;DHT22;18973;48.580;8.912;2023-02-28T16:53:39;4.70;84.80
32534;DHT22;18973;48.580;8.912;2023-02-28T16:56:05;4.70;84.50
32534;DHT22;18973;48.580;8.912;2023-02-28T16:58:32;4.40;85.00
32534;DHT22;18973;48.580;8.912;2023-02-28T17:01:01;4.50;85.30
32534;DHT22;18973;48.580;8.912;2023-02-28T17:03:28;4.30;85.00
32534;DHT22;18973;48.580;8.912;2023-02-28T17:05:54;4.10;86.20
32534;DHT22;18973;48.580;8.912;2023-02-28T17:08:20;4.30;86.10
32534;DHT22;18973;48.580;8.912;2023-02-28T17:10:46;4.40;86.00
32534;DHT22;18973;48.580;8.912;2023-02-28T17:13:12;4.40;85.60
32534;DHT22;18973;48.580;8.912;2023-02-28T17:15:37;4.40;85.60
32534;DHT22;18973;48.580;8.912;2023-02-28T17:18:04;4.30;85.80
32534;DHT22;18973;48.580;8.912;2023-02-28T17:20:31;4.00;86.80
32534;DHT22;18973;48.580;8.912;2023-02-28T17:22:57;3.90;87.30
32534;DHT22;18973;48.580;8.912;2023-02-28T17:25:23;4.00;87.90
32534;DHT22;18973;48.580;8.912;2023-02-28T17:27:49;4.00;88.30
32534;DHT22;18973;48.580;8.912;2023-02-28T17:30:21;3.80;89.20
32534;DHT22;18973;48.580;8.912;2023-02-28T17:32:47;3.70;90.20
32534;DHT22;18973;48.580;8.912;2023-02-28T17:35:13;3.70;90.00
32534;DHT22;18973;48.580;8.912;2023-02-28T17:37:39;3.80;90.00
32534;DHT22;18973;48.580;8.912;2023-02-28T17:40:05;3.90;89.80
32534;DHT22;18973;48.580;8.912;2023-02-28T17:42:31;3.80;89.70
32534;DHT22;18973;48.580;8.912;2023-02-28T17:44:57;3.60;90.60
32534;DHT22;18973;48.580;8.912;2023-02-28T17:47:23;3.40;90.60
32534;DHT22;18973;48.580;8.912;2023-02-28T17:49:48;3.30;91.40
32534;DHT22;18973;48.580;8.912;2023-02-28T17:52:14;3.20;91.00
32534;DHT22;18973;48.580;8.912;2023-02-28T17:54:40;3.20;91.70
32534;DHT22;18973;48.580;8.912;2023-02-28T17:57:05;3.20;91.70
32534;DHT22;18973;48.580;8.912;2023-02-28T17:59:31;3.10;92.00
32534;DHT22;18973;48.580;8.912;2023-02-28T18:02:02;3.00;91.70
32534;DHT22;18973;48.580;8.912;2023-02-28T18:04:29;2.90;91.70
32534;DHT22;18973;48.580;8.912;2023-02-28T18:06:55;2.90;91.80
32534;DHT22;18973;48.580;8.912;2023-02-28T18:09:26;2.90;92.10
32534;DHT22;18973;48.580;8.912;2023-02-28T18:11:54;3.00;92.00
32534;DHT22;18973;48.580;8.912;2023-02-28T18:14:24;3.10;91.90
32534;DHT22;18973;48.580;8.912;2023-02-28T18:16:51;3.10;91.90
32534;DHT22;18973;48.580;8.912;2023-02-28T18:19:17;2.90;92.50
32534;DHT22;18973;48.580;8.912;2023-02-28T18:21:45;2.80;93.90
32534;DHT22;18973;48.580;8.912;2023-02-28T18:24:12;2.90;92.80
32534;DHT22;18973;48.580;8.912;2023-02-28T18:26:38;3.00;92.60
32534;DHT22;18973;48.580;8.912;2023-02-28T18:29:05;3.00;92.60
32534;DHT22;18973;48.580;8.912;2023-02-28T18:31:31;2.90;94.20
32534;DHT22;18973;48.580;8.912;2023-02-28T18:33:57;2.80;93.20
32534;DHT22;18973;48.580;8.912;2023-02-28T18:36:23;2.80;93.10
32534;DHT22;18973;48.580;8.912;2023-02-28T18:38:50;2.80;93.30